Time;durP1;ratioP1;P1;durP2;ratioP2;P2;SDS_P1;SDS_P2;PMS_P1;PMS_P2;Temp;Humidity;BMP_temperature;BMP_pressure;BME280_temperature;BME280_humidity;BME280_pressure;Samples;Min_cycle;Max_cycle;Signal;HPM_P1;HPM_P2
2021/06/22 05:28:26;;;;;;;;;;;;;;;;;;;;;
2021/06/22 06:52:41;;;;;;;;;11.00;9.50;;;;;19.74;62.15;100825.56;6313140;22;45781;-92
2021/06/22 09:21:16;;;;;;;;;;;;;;;;;;;;;
2021/06/22 09:24:25;;;;;;;;;;;;;;;;;;;;;
2021/06/22 09:27:50;;;;;;;;;;;;;;;;;;;;;
2021/06/22 09:30:45;;;;;;;;;;;;;;;;;;;;;
2021/06/22 09:34:07;;;;;;;;;15.00;15.00;;;;;21.81;59.27;100909.50;6091440;23;72911;-92
2021/06/22 09:41:25;;;;;;;;;;;;;;;;;;;;;
2021/06/22 09:44:55;;;;;;;;;19.75;17.00;;;;;21.55;59.06;100900.97;5976623;23;76442;-91
2021/06/22 10:08:49;;;;;;;;;18.00;17.00;;;;;20.87;60.40;100907.97;6424600;22;138109;-91
2021/06/22 17:21:50;;;;;;;;;8.00;8.00;;;;;17.48;63.90;101324.00;6284882;22;45141;-92
2021/06/22 17:27:26;;;;;;;;;8.67;8.67;;;;;17.60;63.03;101335.63;6305604;22;45632;-89
2021/06/22 17:29:56;;;;;;;;;6.67;6.33;;;;;17.63;63.00;101330.19;6277258;22;45267;-90
2021/06/22 17:32:30;;;;;;;;;8.00;6.67;;;;;17.63;63.26;101328.41;6274730;22;46756;-90
2021/06/22 17:35:04;;;;;;;;;6.00;6.00;;;;;17.61;62.95;101332.91;6274567;22;44788;-90
2021/06/22 17:37:30;;;;;;;;;11.33;10.33;;;;;17.62;63.38;101331.13;6301267;22;45455;-90
2021/06/22 17:40:01;;;;;;;;;8.67;7.00;;;;;17.62;63.06;101337.25;6275405;22;45499;-91
2021/06/22 17:42:28;;;;;;;;;11.50;10.00;;;;;17.62;63.09;101349.53;6274589;22;47591;-90
2021/06/22 17:44:54;;;;;;;;;9.00;8.00;;;;;17.57;62.93;101347.19;6276136;22;45868;-90
2021/06/22 17:47:20;;;;;;;;;9.00;9.00;;;;;17.56;62.99;101353.38;6274043;22;45371;-90
2021/06/22 17:49:46;;;;;;;;;9.67;9.00;;;;;17.52;62.89;101343.09;6275950;22;45394;-90
2021/06/22 17:52:14;;;;;;;;;12.00;11.75;;;;;17.48;62.56;101352.94;6275595;22;46065;-90
2021/06/22 17:54:39;;;;;;;;;12.00;12.00;;;;;17.45;62.34;101348.69;6275238;22;45599;-89
2021/06/22 17:57:10;;;;;;;;;9.00;8.67;;;;;17.43;62.52;101350.56;6274474;22;45324;-90
2021/06/22 17:59:36;;;;;;;;;11.33;11.00;;;;;17.39;62.43;101354.31;6301294;22;45413;-90
2021/06/22 18:02:04;;;;;;;;;11.33;11.33;;;;;17.32;62.45;101347.69;6275484;22;47340;-90
2021/06/22 18:04:33;;;;;;;;;11.00;11.00;;;;;17.33;62.46;101350.25;6273344;22;45845;-89
2021/06/22 18:07:06;;;;;;;;;12.50;11.25;;;;;17.34;62.59;101351.94;6302745;22;45348;-90
2021/06/22 18:09:37;;;;;;;;;15.00;14.00;;;;;17.31;62.78;101359.97;6276137;22;45437;-90
2021/06/22 18:12:14;;;;;;;;;13.00;13.00;;;;;17.33;62.62;101352.00;6275333;22;47076;-90
2021/06/22 18:14:40;;;;;;;;;12.75;11.50;;;;;17.30;62.41;101358.28;6274474;22;45231;-89
2021/06/22 18:17:15;;;;;;;;;15.00;15.00;;;;;17.25;62.72;101359.50;6302441;22;45223;-89
2021/06/22 18:19:41;;;;;;;;;19.25;15.25;;;;;17.23;62.62;101360.41;6273766;22;45293;-89
2021/06/22 18:22:06;;;;;;;;;17.25;17.00;;;;;17.22;62.20;101365.75;6275033;22;48075;-89
2021/06/22 18:24:32;;;;;;;;;14.50;14.00;;;;;17.18;62.76;101365.06;6302712;22;45227;-90
2021/06/22 18:26:57;;;;;;;;;14.50;14.25;;;;;17.15;62.42;101373.13;6277101;22;45376;-92
2021/06/22 18:29:22;;;;;;;;;14.00;14.00;;;;;17.16;62.68;101371.31;6305129;22;45744;-90
2021/06/22 18:31:50;;;;;;;;;16.25;16.25;;;;;17.16;62.64;101373.94;6275512;22;48239;-91
2021/06/22 18:34:16;;;;;;;;;16.75;15.50;;;;;17.17;62.76;101373.88;6275234;22;45488;-90
2021/06/22 18:36:41;;;;;;;;;17.50;15.75;;;;;17.19;62.27;101384.31;6302660;22;45507;-90
2021/06/22 18:39:09;;;;;;;;;21.00;18.25;;;;;17.16;62.16;101385.34;6277500;22;45561;-90
2021/06/22 18:41:35;;;;;;;;;21.75;19.25;;;;;17.14;62.19;101384.59;6303461;22;45245;-91
2021/06/22 18:44:00;;;;;;;;;19.00;17.50;;;;;17.12;62.31;101401.38;6276021;22;45549;-90
2021/06/22 18:46:28;;;;;;;;;17.50;17.00;;;;;17.13;61.99;101396.00;6275618;22;45294;-90
2021/06/22 18:48:56;;;;;;;;;18.00;16.75;;;;;17.10;62.08;101398.81;6275627;22;45456;-89
2021/06/22 18:51:24;;;;;;;;;22.50;20.00;;;;;17.10;62.45;101401.44;6303120;22;46162;-89
2021/06/22 18:54:06;;;;;;;;;19.75;18.25;;;;;17.11;62.00;101412.81;6302797;22;45505;-89
2021/06/22 18:56:32;;;;;;;;;19.00;19.00;;;;;17.06;62.19;101410.41;6304373;22;45555;-89
2021/06/22 18:58:59;;;;;;;;;22.00;21.50;;;;;17.04;62.15;101413.13;6277141;22;45927;-90
2021/06/22 19:01:25;;;;;;;;;24.50;20.25;;;;;17.03;62.13;101410.59;6275067;22;47062;-89
2021/06/22 19:03:51;;;;;;;;;22.25;20.25;;;;;16.99;62.46;101415.09;6302778;22;45513;-89
2021/06/22 19:06:16;;;;;;;;;20.25;20.25;;;;;16.95;62.46;101410.97;6277800;22;45638;-90
2021/06/22 19:08:42;;;;;;;;;24.25;22.25;;;;;16.98;62.28;101425.72;6305149;22;45536;-89
2021/06/22 19:11:10;;;;;;;;;26.25;25.75;;;;;16.97;62.33;101427.50;6276442;22;47370;-90
2021/06/22 19:13:35;;;;;;;;;24.50;23.50;;;;;16.93;62.40;101429.44;6303021;22;45343;-90
2021/06/22 19:16:01;;;;;;;;;25.25;25.00;;;;;16.92;62.39;101437.41;6303304;22;45524;-90
2021/06/22 19:18:26;;;;;;;;;25.50;23.50;;;;;16.93;62.20;101434.69;6305033;22;45227;-90
2021/06/22 19:20:52;;;;;;;;;24.25;23.75;;;;;16.94;62.18;101435.56;6276905;22;47413;-90
2021/06/22 19:23:18;;;;;;;;;24.75;23.75;;;;;16.95;62.28;101437.25;6275905;22;45358;-90
2021/06/22 19:25:44;;;;;;;;;25.75;24.75;;;;;16.93;62.17;101442.59;6275048;22;45536;-89
2021/06/22 19:28:11;;;;;;;;;23.75;23.75;;;;;16.92;62.39;101435.63;6304903;22;45400;-90
2021/06/22 19:30:38;;;;;;;;;27.50;25.75;;;;;16.89;62.47;101437.56;6303237;22;46193;-90
2021/06/22 19:33:05;;;;;;;;;28.00;27.50;;;;;16.91;62.43;101433.06;6304178;22;45162;-89
2021/06/22 19:35:33;;;;;;;;;32.50;25.50;;;;;16.89;62.33;101433.16;6302489;22;45397;-90
2021/06/22 19:37:59;;;;;;;;;30.50;26.00;;;;;16.89;62.09;101437.56;6276833;22;45494;-90
2021/06/22 19:40:25;;;;;;;;;27.25;26.50;;;;;16.88;62.32;101439.34;6275271;22;46493;-90
2021/06/22 19:42:53;;;;;;;;;31.25;30.50;;;;;16.85;62.11;101436.03;6276489;22;45760;-90
2021/06/22 19:45:19;;;;;;;;;31.25;29.50;;;;;16.82;61.82;101443.13;6275672;22;45783;-90
2021/06/22 19:47:44;;;;;;;;;32.50;31.00;;;;;16.77;61.84;101437.28;6276721;22;45440;-89
2021/06/22 19:50:10;;;;;;;;;32.25;31.25;;;;;16.79;61.87;101434.53;6275695;22;46907;-90
2021/06/22 19:52:37;;;;;;;;;34.00;31.00;;;;;16.79;61.92;101438.03;6274829;22;45778;-89
2021/06/22 19:55:05;;;;;;;;;37.00;32.25;;;;;16.78;61.93;101446.00;6277115;22;45401;-90
2021/06/22 19:57:33;;;;;;;;;32.75;30.75;;;;;16.73;61.77;101448.00;6273819;22;45354;-91
2021/06/22 20:00:01;;;;;;;;;37.75;34.50;;;;;16.73;61.67;101448.88;6275986;22;47792;-89
2021/06/22 20:02:29;;;;;;;;;37.00;32.50;;;;;16.70;61.92;101449.88;6300137;22;45813;-89
2021/06/22 20:04:54;;;;;;;;;34.25;32.00;;;;;16.72;62.01;101448.94;6275071;22;45382;-90
2021/06/22 20:07:20;;;;;;;;;35.75;32.00;;;;;16.70;62.00;101456.91;6274747;22;45255;-89
2021/06/22 20:09:45;;;;;;;;;38.00;33.00;;;;;16.70;62.06;101459.53;6272774;22;46875;-90
2021/06/22 20:12:11;;;;;;;;;39.50;33.50;;;;;16.68;61.99;101456.13;6301476;22;45690;-89
2021/06/22 20:14:37;;;;;;;;;35.50;32.00;;;;;16.67;62.04;101468.41;6275077;22;45701;-89
2021/06/22 20:17:03;;;;;;;;;31.00;31.00;;;;;16.64;62.38;101473.84;6276460;22;45448;-88
2021/06/22 20:19:29;;;;;;;;;35.25;32.50;;;;;16.65;62.40;101469.41;6301726;22;47183;-89
2021/06/22 20:21:59;;;;;;;;;38.50;34.00;;;;;16.61;62.22;101478.41;6301926;22;45733;-89
2021/06/22 20:24:25;;;;;;;;;33.00;31.25;;;;;16.57;62.10;101475.03;6301222;22;45229;-89
2021/06/22 20:26:50;;;;;;;;;37.50;33.50;;;;;16.55;62.26;101476.91;6274698;22;45662;-90
2021/06/22 20:29:16;;;;;;;;;35.50;31.75;;;;;16.54;62.36;101483.09;6275505;22;46984;-90
2021/06/22 20:31:42;;;;;;;;;31.25;30.50;;;;;16.52;62.28;101485.78;6274379;22;46246;-89
2021/06/22 20:34:08;;;;;;;;;34.00;29.25;;;;;16.53;62.45;101484.03;6304771;22;45305;-90
2021/06/22 20:36:34;;;;;;;;;30.25;29.00;;;;;16.52;62.45;101485.78;6304061;22;45332;-90
2021/06/22 20:38:59;;;;;;;;;31.75;28.50;;;;;16.52;62.43;101491.03;6274871;22;45882;-90
2021/06/22 20:41:25;;;;;;;;;36.50;33.00;;;;;16.52;62.57;101487.59;6274596;22;45578;-90
2021/06/22 20:43:50;;;;;;;;;33.75;32.50;;;;;16.55;62.52;101505.81;6275449;22;45584;-89
2021/06/22 20:46:16;;;;;;;;;37.75;32.00;;;;;16.52;62.57;101504.19;6303704;22;45428;-90
2021/06/22 20:48:41;;;;;;;;;35.50;32.00;;;;;16.54;62.48;101512.81;6301645;22;46778;-90
2021/06/22 20:51:07;;;;;;;;;34.25;32.25;;;;;16.55;62.48;101516.31;6304508;22;45443;-89
2021/06/22 20:53:33;;;;;;;;;29.50;28.25;;;;;16.52;62.75;101514.69;6275208;22;45476;-89
2021/06/22 20:55:58;;;;;;;;;31.25;29.75;;;;;16.53;62.43;101515.56;6277839;22;45417;-89
2021/06/22 20:58:24;;;;;;;;;31.75;30.75;;;;;16.53;62.24;101512.94;6302507;22;46921;-89
2021/06/22 21:00:49;;;;;;;;;33.25;30.00;;;;;16.52;62.38;101516.50;6278365;22;45614;-89
2021/06/22 21:03:15;;;;;;;;;26.25;26.25;;;;;16.53;62.18;101512.94;6275434;22;45754;-89
2021/06/22 21:05:40;;;;;;;;;31.00;29.50;;;;;16.55;62.38;101517.19;6304640;22;45243;-89
2021/06/22 21:08:06;;;;;;;;;37.50;32.50;;;;;16.53;62.19;101518.19;6278616;22;47177;-89
2021/06/22 21:10:31;;;;;;;;;34.00;31.75;;;;;16.53;62.49;101521.63;6278576;22;45712;-90
2021/06/22 21:12:57;;;;;;;;;36.75;32.00;;;;;16.53;62.57;101529.53;6279375;22;45143;-90
2021/06/22 21:15:22;;;;;;;;;31.75;31.00;;;;;16.52;62.71;101534.88;6278970;22;45409;-89
2021/06/22 21:17:47;;;;;;;;;33.50;30.75;;;;;16.52;62.35;101533.09;6278528;22;46745;-89
2021/06/22 21:20:13;;;;;;;;;28.50;28.50;;;;;16.51;62.47;101531.38;6307190;22;45281;-89
2021/06/22 21:22:39;;;;;;;;;33.50;31.50;;;;;16.52;62.79;101529.63;6278963;22;45325;-89
2021/06/22 21:25:06;;;;;;;;;34.75;32.00;;;;;16.50;62.44;101526.19;6279148;22;45405;-89
2021/06/22 21:27:32;;;;;;;;;30.00;30.00;;;;;16.50;62.33;101526.19;6278546;22;47195;-89
2021/06/22 21:29:58;;;;;;;;;33.00;31.00;;;;;16.51;62.80;101533.16;6306822;22;45364;-89
2021/06/22 21:32:23;;;;;;;;;40.50;33.75;;;;;16.52;62.67;101532.25;6279842;22;45183;-89
2021/06/22 21:34:49;;;;;;;;;33.75;31.50;;;;;16.49;62.51;101528.00;6278819;22;45311;-89
2021/06/22 21:37:14;;;;;;;;;34.50;31.00;;;;;16.51;62.67;101535.78;6278499;22;47404;-89
2021/06/22 21:39:39;;;;;;;;;34.50;30.50;;;;;16.49;62.63;101532.38;6304885;22;46060;-90
2021/06/22 21:42:05;;;;;;;;;34.50;30.25;;;;;16.49;62.55;101532.38;6278836;22;45485;-89
2021/06/22 21:44:31;;;;;;;;;36.50;33.00;;;;;16.51;62.48;101539.25;6307097;22;45390;-89
2021/06/22 21:46:56;;;;;;;;;32.75;29.75;;;;;16.53;62.54;101547.09;6305745;22;45325;-89
2021/06/22 21:49:24;;;;;;;;;38.75;33.50;;;;;16.57;62.59;101561.75;6304852;22;45384;-89
2021/06/22 21:51:51;;;;;;;;;34.00;28.75;;;;;16.54;62.43;101554.88;6278841;22;45459;-89
2021/06/22 21:54:16;;;;;;;;;34.75;31.25;;;;;16.57;62.50;101564.38;6279166;22;45383;-89
2021/06/22 21:56:42;;;;;;;;;36.25;33.50;;;;;16.55;62.76;101558.34;6277718;22;47123;-89
2021/06/22 21:59:07;;;;;;;;;33.75;29.00;;;;;16.55;62.48;101556.59;6278664;22;45650;-88
2021/06/22 22:01:33;;;;;;;;;41.75;33.75;;;;;16.55;62.52;101558.34;6278608;22;45316;-89
2021/06/22 22:04:01;;;;;;;;;34.50;32.25;;;;;16.58;62.58;101565.25;6306849;22;45290;-89
2021/06/22 22:06:26;;;;;;;;;38.25;32.50;;;;;16.55;62.16;101567.09;6277925;22;47457;-89
2021/06/22 22:08:52;;;;;;;;;36.75;32.25;;;;;16.58;62.74;101568.72;6305845;22;45187;-89
2021/06/22 22:11:17;;;;;;;;;38.00;34.00;;;;;16.56;62.65;101571.44;6278694;22;45296;-89
2021/06/22 22:13:43;;;;;;;;;38.50;33.00;;;;;16.58;62.59;101567.88;6278625;22;45212;-89
2021/06/22 22:16:08;;;;;;;;;38.75;33.25;;;;;16.60;62.62;101568.63;6304188;22;46075;-88
2021/06/22 22:18:34;;;;;;;;;32.75;32.25;;;;;16.51;62.30;101559.41;6305465;22;45470;-88
2021/06/22 22:21:02;;;;;;;;;34.75;31.00;;;;;16.49;62.85;101567.41;6306125;22;45227;-89
2021/06/22 22:23:28;;;;;;;;;33.00;31.50;;;;;16.47;62.56;101566.59;6278370;22;45390;-88
2021/06/22 22:25:55;;;;;;;;;36.25;32.50;;;;;16.52;62.98;101566.41;6306104;22;45336;-89
2021/06/22 22:28:20;;;;;;;;;30.75;29.25;;;;;16.50;62.80;101576.13;6277682;22;45291;-89
2021/06/22 22:30:46;;;;;;;;;36.00;32.75;;;;;16.48;62.82;101565.66;6305931;22;45072;-89
2021/06/22 22:33:11;;;;;;;;;36.00;33.75;;;;;16.48;62.83;101564.84;6306424;22;45445;-89
2021/06/22 22:35:37;;;;;;;;;35.50;32.75;;;;;16.46;62.60;101569.28;6278050;22;47704;-89
2021/06/22 22:38:02;;;;;;;;;35.75;31.75;;;;;16.45;62.69;101565.84;6277326;22;45592;-89
2021/06/22 22:40:27;;;;;;;;;39.00;33.75;;;;;16.47;62.46;101568.41;6305818;22;45306;-89
2021/06/22 22:42:53;;;;;;;;;30.75;30.50;;;;;16.47;62.48;101571.84;6278705;22;45247;-89
2021/06/22 22:45:18;;;;;;;;;36.50;33.50;;;;;16.47;62.57;101573.66;6305917;22;45505;-89
2021/06/22 22:47:44;;;;;;;;;35.00;31.75;;;;;16.47;62.78;101576.28;6278171;22;45677;-88
2021/06/22 22:50:11;;;;;;;;;34.75;33.50;;;;;16.39;62.71;101572.22;6277577;22;44727;-89
2021/06/22 22:52:39;;;;;;;;;37.00;33.50;;;;;16.43;62.83;101579.03;6305735;22;45325;-89
2021/06/22 22:55:06;;;;;;;;;33.50;31.00;;;;;16.46;62.87;101588.56;6277650;22;47420;-89
2021/06/22 22:57:32;;;;;;;;;35.25;32.75;;;;;16.48;62.92;101584.06;6277674;22;45248;-88
2021/06/22 22:59:58;;;;;;;;;33.50;30.50;;;;;16.47;63.03;101582.38;6277767;22;45245;-89
2021/06/22 23:02:25;;;;;;;;;36.00;32.00;;;;;16.50;62.90;101584.88;6305791;22;45893;-90
2021/06/22 23:04:50;;;;;;;;;39.00;33.25;;;;;16.54;62.86;101582.94;6278800;22;47003;-88
2021/06/22 23:07:16;;;;;;;;;36.00;33.00;;;;;16.55;62.88;101590.75;6278881;22;45334;-89
2021/06/22 23:09:41;;;;;;;;;33.25;31.75;;;;;16.56;62.85;101589.81;6279553;22;45227;-90
2021/06/22 23:12:07;;;;;;;;;34.00;29.25;;;;;16.57;62.63;101593.28;6279262;22;45234;-89
2021/06/22 23:14:33;;;;;;;;;35.25;32.00;;;;;16.58;62.62;101594.13;6279202;22;47219;-90
2021/06/22 23:16:58;;;;;;;;;38.25;32.75;;;;;16.55;62.65;101587.25;6279339;22;45277;-87
2021/06/22 23:19:23;;;;;;;;;32.25;30.75;;;;;16.54;62.57;101591.66;6307563;22;45243;-89
2021/06/22 23:21:49;;;;;;;;;30.75;30.25;;;;;16.54;62.74;101593.44;6304618;22;45249;-88
2021/06/22 23:24:14;;;;;;;;;33.00;31.50;;;;;16.53;62.81;101584.69;6306855;22;46661;-89
2021/06/22 23:26:40;;;;;;;;;36.50;32.00;;;;;16.55;63.02;101590.75;6278890;22;45347;-89
2021/06/22 23:29:05;;;;;;;;;36.25;32.00;;;;;16.54;62.98;101590.81;6279449;22;45329;-89
2021/06/22 23:31:31;;;;;;;;;37.50;35.00;;;;;16.55;63.00;101589.88;6279530;22;45454;-89
2021/06/22 23:33:56;;;;;;;;;38.50;31.75;;;;;16.56;62.71;101578.44;6306945;22;46356;-88
2021/06/22 23:36:22;;;;;;;;;35.25;33.50;;;;;16.57;62.90;101580.13;6279407;22;45236;-89
2021/06/22 23:38:47;;;;;;;;;40.25;33.50;;;;;16.60;62.97;101585.25;6278267;22;45237;-89
2021/06/22 23:41:13;;;;;;;;;36.50;34.25;;;;;16.58;62.86;101578.38;6307631;22;45220;-89
2021/06/22 23:43:38;;;;;;;;;34.75;31.75;;;;;16.58;62.91;101581.88;6278766;22;47384;-89
2021/06/22 23:46:04;;;;;;;;;38.50;33.50;;;;;16.58;62.83;101576.63;6278920;22;45855;-88
2021/06/22 23:48:29;;;;;;;;;38.25;33.75;;;;;16.61;62.93;101571.19;6279489;22;45424;-89
2021/06/22 23:50:55;;;;;;;;;40.50;30.25;;;;;16.59;62.88;101573.06;6307508;22;45412;-89
2021/06/22 23:53:20;;;;;;;;;38.50;34.25;;;;;16.56;62.81;101565.31;6278578;22;46205;-87
2021/06/22 23:55:47;;;;;;;;;33.75;32.75;;;;;16.52;62.65;101569.88;6278672;22;45710;-89
2021/06/22 23:58:12;;;;;;;;;35.25;32.25;;;;;16.52;62.88;101566.41;6307362;22;45335;-89
